sensor_id;sensor_type;location;lat;lon;timestamp;pressure;altitude;pressure_sealevel;temperature;humidity
28626;BME280;18905;42.668;23.364;2023-04-05T00:00:50;94588.75;;;0.54;100.00
28626;BME280;18905;42.668;23.364;2023-04-05T00:03:16;94464.53;;;-0.50;100.00
28626;BME280;18905;42.668;23.364;2023-04-05T00:05:42;94610.25;;;0.52;100.00
28626;BME280;18905;42.668;23.364;2023-04-05T00:08:08;94518.16;;;-0.13;100.00
28626;BME280;18905;42.668;23.364;2023-04-05T00:10:37;94606.00;;;0.66;100.00
28626;BME280;18905;42.668;23.364;2023-04-05T00:13:03;94572.06;;;0.23;100.00
28626;BME280;18905;42.668;23.364;2023-04-05T00:15:29;94589.28;;;0.41;100.00
28626;BME280;18905;42.668;23.364;2023-04-05T00:17:56;94581.06;;;0.22;100.00
28626;BME280;18905;42.668;23.364;2023-04-05T00:20:22;94582.66;;;0.23;100.00
28626;BME280;18905;42.668;23.364;2023-04-05T00:22:47;94551.06;;;0.22;100.00
28626;BME280;18905;42.668;23.364;2023-04-05T00:25:15;94546.25;;;0.33;100.00
28626;BME280;18905;42.668;23.364;2023-04-05T00:27:43;94545.75;;;0.32;100.00
28626;BME280;18905;42.668;23.364;2023-04-05T00:30:08;94576.78;;;0.56;100.00
28626;BME280;18905;42.668;23.364;2023-04-05T00:32:34;94605.47;;;0.74;100.00
28626;BME280;18905;42.668;23.364;2023-04-05T00:35:00;94513.63;;;0.13;100.00
28626;BME280;18905;42.668;23.364;2023-04-05T00:37:25;94586.09;;;0.49;100.00
28626;BME280;18905;42.668;23.364;2023-04-05T00:39:51;94472.53;;;-0.20;100.00
28626;BME280;18905;42.668;23.364;2023-04-05T00:42:18;94557.16;;;0.12;100.00
28626;BME280;18905;42.668;23.364;2023-04-05T00:44:43;94588.25;;;0.17;100.00
28626;BME280;18905;42.668;23.364;2023-04-05T00:47:09;94589.31;;;0.31;100.00
28626;BME280;18905;42.668;23.364;2023-04-05T00:49:35;94564.59;;;0.20;100.00
28626;BME280;18905;42.668;23.364;2023-04-05T00:52:02;94577.06;;;0.19;100.00
28626;BME280;18905;42.668;23.364;2023-04-05T00:54:28;94605.22;;;0.51;100.00
28626;BME280;18905;42.668;23.364;2023-04-05T00:56:58;94593.50;;;0.57;100.00
28626;BME280;18905;42.668;23.364;2023-04-05T00:59:24;94612.66;;;0.49;100.00
28626;BME280;18905;42.668;23.364;2023-04-05T01:01:56;94609.16;;;0.83;100.00
28626;BME280;18905;42.668;23.364;2023-04-05T01:04:25;94563.75;;;0.60;100.00
28626;BME280;18905;42.668;23.364;2023-04-05T01:06:59;94615.00;;;0.90;100.00
28626;BME280;18905;42.668;23.364;2023-04-05T01:09:44;94620.63;;;0.49;100.00
28626;BME280;18905;42.668;23.364;2023-04-05T01:12:16;94599.91;;;0.41;100.00
28626;BME280;18905;42.668;23.364;2023-04-05T01:15:00;94589.81;;;0.43;100.00
28626;BME280;18905;42.668;23.364;2023-04-05T01:17:27;94572.28;;;0.47;100.00
28626;BME280;18905;42.668;23.364;2023-04-05T01:19:55;94602.81;;;0.59;100.00
28626;BME280;18905;42.668;23.364;2023-04-05T01:30:17;94580.78;;;0.33;100.00
28626;BME280;18905;42.668;23.364;2023-04-05T01:35:58;94599.66;;;0.52;100.00
28626;BME280;18905;42.668;23.364;2023-04-05T01:38:26;94619.81;;;0.63;100.00
28626;BME280;18905;42.668;23.364;2023-04-05T01:40:53;94509.13;;;-0.02;100.00
28626;BME280;18905;42.668;23.364;2023-04-05T01:43:18;94597.25;;;0.51;100.00
28626;BME280;18905;42.668;23.364;2023-04-05T01:45:45;94605.22;;;0.41;100.00
28626;BME280;18905;42.668;23.364;2023-04-05T01:48:11;94581.06;;;0.37;100.00
28626;BME280;18905;42.668;23.364;2023-04-05T01:50:37;94583.97;;;0.46;100.00
28626;BME280;18905;42.668;23.364;2023-04-05T01:53:02;94622.72;;;0.87;100.00
28626;BME280;18905;42.668;23.364;2023-04-05T01:55:28;94626.44;;;0.91;100.00
28626;BME280;18905;42.668;23.364;2023-04-05T01:57:54;94593.00;;;0.60;100.00
28626;BME280;18905;42.668;23.364;2023-04-05T02:00:20;94580.00;;;0.28;100.00
28626;BME280;18905;42.668;23.364;2023-04-05T02:02:46;94591.69;;;0.42;100.00
28626;BME280;18905;42.668;23.364;2023-04-05T02:05:12;94606.28;;;0.45;100.00
28626;BME280;18905;42.668;23.364;2023-04-05T02:07:37;94562.72;;;0.20;100.00
28626;BME280;18905;42.668;23.364;2023-04-05T02:10:03;94626.94;;;0.98;100.00
28626;BME280;18905;42.668;23.364;2023-04-05T02:12:29;94614.50;;;0.63;100.00
28626;BME280;18905;42.668;23.364;2023-04-05T02:14:54;94588.75;;;0.54;100.00
28626;BME280;18905;42.668;23.364;2023-04-05T02:17:19;94577.06;;;0.19;100.00
28626;BME280;18905;42.668;23.364;2023-04-05T02:19:46;94616.09;;;0.54;100.00
28626;BME280;18905;42.668;23.364;2023-04-05T02:22:12;94633.13;;;0.38;100.00
28626;BME280;18905;42.668;23.364;2023-04-05T02:24:37;94596.44;;;0.45;100.00
28626;BME280;18905;42.668;23.364;2023-04-05T02:27:03;94604.13;;;0.77;100.00
28626;BME280;18905;42.668;23.364;2023-04-05T02:29:28;94608.38;;;0.83;100.00
28626;BME280;18905;42.668;23.364;2023-04-05T02:31:56;94616.34;;;0.83;100.00
28626;BME280;18905;42.668;23.364;2023-04-05T02:34:21;94594.34;;;0.52;100.00
28626;BME280;18905;42.668;23.364;2023-04-05T02:36:51;94580.78;;;0.54;100.00
28626;BME280;18905;42.668;23.364;2023-04-05T02:39:17;94566.44;;;0.29;100.00
28626;BME280;18905;42.668;23.364;2023-04-05T02:41:42;94608.38;;;0.52;100.00
28626;BME280;18905;42.668;23.364;2023-04-05T02:44:08;94584.25;;;0.19;100.00
28626;BME280;18905;42.668;23.364;2023-04-05T02:46:33;94620.63;;;0.49;100.00
28626;BME280;18905;42.668;23.364;2023-04-05T02:48:59;94578.91;;;0.59;100.00
28626;BME280;18905;42.668;23.364;2023-04-05T02:51:24;94600.69;;;0.71;100.00
28626;BME280;18905;42.668;23.364;2023-04-05T02:53:51;94608.91;;;0.70;100.00
28626;BME280;18905;42.668;23.364;2023-04-05T02:56:17;94605.44;;;0.84;100.00
28626;BME280;18905;42.668;23.364;2023-04-05T02:58:43;94618.75;;;0.69;100.00
28626;BME280;18905;42.668;23.364;2023-04-05T03:01:08;94604.34;;;0.90;100.00
28626;BME280;18905;42.668;23.364;2023-04-05T03:03:34;94559.53;;;0.49;100.00
28626;BME280;18905;42.668;23.364;2023-04-05T03:06:04;94582.59;;;0.78;100.00
28626;BME280;18905;42.668;23.364;2023-04-05T03:08:36;94625.38;;;0.82;100.00
28626;BME280;18905;42.668;23.364;2023-04-05T03:11:04;94606.53;;;0.78;100.00
28626;BME280;18905;42.668;23.364;2023-04-05T03:13:30;94550.25;;;0.31;100.00
28626;BME280;18905;42.668;23.364;2023-04-05T03:15:56;94617.41;;;0.62;100.00
28626;BME280;18905;42.668;23.364;2023-04-05T03:18:21;94555.56;;;0.26;100.00
28626;BME280;18905;42.668;23.364;2023-04-05T03:20:50;94574.91;;;0.62;100.00
28626;BME280;18905;42.668;23.364;2023-04-05T03:23:24;94617.66;;;0.80;100.00
28626;BME280;18905;42.668;23.364;2023-04-05T03:25:53;94606.50;;;0.73;100.00
28626;BME280;18905;42.668;23.364;2023-04-05T03:28:20;94605.22;;;0.46;100.00
28626;BME280;18905;42.668;23.364;2023-04-05T03:30:45;94586.38;;;0.37;100.00
28626;BME280;18905;42.668;23.364;2023-04-05T03:33:11;94577.59;;;0.47;100.00
28626;BME280;18905;42.668;23.364;2023-04-05T03:35:36;94605.19;;;0.71;100.00
28626;BME280;18905;42.668;23.364;2023-04-05T03:38:02;94594.56;;;0.61;100.00
28626;BME280;18905;42.668;23.364;2023-04-05T03:40:27;94602.28;;;0.57;100.00
28626;BME280;18905;42.668;23.364;2023-04-05T03:42:52;94626.72;;;0.74;100.00
28626;BME280;18905;42.668;23.364;2023-04-05T03:45:18;94598.28;;;0.70;100.00
28626;BME280;18905;42.668;23.364;2023-04-05T03:47:43;94611.84;;;0.68;100.00
28626;BME280;18905;42.668;23.364;2023-04-05T03:50:09;94616.38;;;0.58;100.00
28626;BME280;18905;42.668;23.364;2023-04-05T03:52:35;94624.34;;;0.68;100.00
28626;BME280;18905;42.668;23.364;2023-04-05T03:55:00;94608.41;;;0.28;100.00
28626;BME280;18905;42.668;23.364;2023-04-05T03:57:26;94644.50;;;0.79;100.00
28626;BME280;18905;42.668;23.364;2023-04-05T03:59:55;94606.28;;;0.45;100.00
28626;BME280;18905;42.668;23.364;2023-04-05T04:02:20;94604.63;;;0.89;100.00
28626;BME280;18905;42.668;23.364;2023-04-05T04:04:46;94655.94;;;0.89;100.00
28626;BME280;18905;42.668;23.364;2023-04-05T04:07:12;94581.31;;;0.41;100.00
28626;BME280;18905;42.668;23.364;2023-04-05T04:09:37;94592.94;;;0.85;100.00
28626;BME280;18905;42.668;23.364;2023-04-05T04:12:03;94626.19;;;0.57;100.00
28626;BME280;18905;42.668;23.364;2023-04-05T04:14:28;94612.66;;;0.64;100.00
28626;BME280;18905;42.668;23.364;2023-04-05T04:16:54;94625.63;;;0.85;100.00
28626;BME280;18905;42.668;23.364;2023-04-05T04:19:19;94520.28;;;-0.10;100.00
28626;BME280;18905;42.668;23.364;2023-04-05T04:21:45;94624.84;;;0.90;100.00
28626;BME280;18905;42.668;23.364;2023-04-05T04:24:19;94664.28;;;1.56;100.00
28626;BME280;18905;42.668;23.364;2023-04-05T04:26:45;94632.03;;;0.84;100.00
28626;BME280;18905;42.668;23.364;2023-04-05T04:29:11;94653.81;;;0.61;100.00
28626;BME280;18905;42.668;23.364;2023-04-05T04:31:43;94658.84;;;0.93;100.00
28626;BME280;18905;42.668;23.364;2023-04-05T04:34:10;94637.06;;;0.66;100.00
28626;BME280;18905;42.668;23.364;2023-04-05T04:36:36;94653.56;;;0.58;100.00
28626;BME280;18905;42.668;23.364;2023-04-05T04:39:03;94658.88;;;0.63;100.00
28626;BME280;18905;42.668;23.364;2023-04-05T04:41:32;94653.53;;;0.88;100.00
28626;BME280;18905;42.668;23.364;2023-04-05T04:43:59;94650.38;;;0.76;100.00
28626;BME280;18905;42.668;23.364;2023-04-05T04:46:28;94660.72;;;0.72;100.00
28626;BME280;18905;42.668;23.364;2023-04-05T04:48:55;94645.59;;;0.68;100.00
28626;BME280;18905;42.668;23.364;2023-04-05T04:51:22;94638.13;;;0.75;100.00
28626;BME280;18905;42.668;23.364;2023-04-05T04:53:47;94637.84;;;0.81;100.00
28626;BME280;18905;42.668;23.364;2023-04-05T04:56:12;94583.72;;;0.47;100.00
28626;BME280;18905;42.668;23.364;2023-04-05T04:58:38;94664.69;;;1.00;100.00
28626;BME280;18905;42.668;23.364;2023-04-05T05:01:07;94637.06;;;0.91;100.00
28626;BME280;18905;42.668;23.364;2023-04-05T05:03:34;94670.50;;;1.12;100.00
28626;BME280;18905;42.668;23.364;2023-04-05T05:06:01;94654.84;;;1.10;100.00
28626;BME280;18905;42.668;23.364;2023-04-05T05:08:27;94673.44;;;1.00;100.00
28626;BME280;18905;42.668;23.364;2023-04-05T05:10:52;94646.66;;;0.52;100.00
28626;BME280;18905;42.668;23.364;2023-04-05T05:13:18;94659.38;;;0.80;100.00
28626;BME280;18905;42.668;23.364;2023-04-05T05:15:43;94659.66;;;0.68;100.00
28626;BME280;18905;42.668;23.364;2023-04-05T05:18:09;94631.53;;;0.42;100.00
28626;BME280;18905;42.668;23.364;2023-04-05T05:20:34;94624.09;;;0.64;100.00
28626;BME280;18905;42.668;23.364;2023-04-05T05:23:00;94653.00;;;0.91;100.00
28626;BME280;18905;42.668;23.364;2023-04-05T05:25:28;94625.94;;;0.64;100.00
28626;BME280;18905;42.668;23.364;2023-04-05T05:27:53;94665.75;;;0.99;100.00
28626;BME280;18905;42.668;23.364;2023-04-05T05:30:18;94682.25;;;0.96;100.00
28626;BME280;18905;42.668;23.364;2023-04-05T05:32:45;94643.72;;;0.68;100.00
28626;BME280;18905;42.668;23.364;2023-04-05T05:35:10;94657.78;;;0.94;100.00
28626;BME280;18905;42.668;23.364;2023-04-05T05:37:36;94652.47;;;0.89;100.00
28626;BME280;18905;42.668;23.364;2023-04-05T05:40:02;94620.84;;;0.77;100.00
28626;BME280;18905;42.668;23.364;2023-04-05T05:42:29;94670.03;;;0.95;100.00
28626;BME280;18905;42.668;23.364;2023-04-05T05:45:01;94628.28;;;0.85;100.00
28626;BME280;18905;42.668;23.364;2023-04-05T05:47:26;94618.19;;;0.92;100.00
28626;BME280;18905;42.668;23.364;2023-04-05T05:49:52;94672.66;;;1.05;100.00
28626;BME280;18905;42.668;23.364;2023-04-05T05:52:17;94673.44;;;1.20;100.00
28626;BME280;18905;42.668;23.364;2023-04-05T05:54:43;94646.88;;;1.00;100.00
28626;BME280;18905;42.668;23.364;2023-04-05T05:57:08;94634.66;;;0.99;100.00
28626;BME280;18905;42.668;23.364;2023-04-05T05:59:33;94634.31;;;1.26;100.00
28626;BME280;18905;42.668;23.364;2023-04-05T06:01:59;94665.63;;;1.54;100.00
28626;BME280;18905;42.668;23.364;2023-04-05T06:04:25;94644.03;;;1.60;100.00
28626;BME280;18905;42.668;23.364;2023-04-05T06:06:51;94639.72;;;1.74;100.00
28626;BME280;18905;42.668;23.364;2023-04-05T06:09:16;94623.09;;;1.39;100.00
28626;BME280;18905;42.668;23.364;2023-04-05T06:11:42;94658.06;;;1.76;100.00
28626;BME280;18905;42.668;23.364;2023-04-05T06:14:07;94653.00;;;1.79;100.00
28626;BME280;18905;42.668;23.364;2023-04-05T06:16:33;94660.69;;;1.86;100.00
28626;BME280;18905;42.668;23.364;2023-04-05T06:18:59;94667.84;;;1.90;100.00
28626;BME280;18905;42.668;23.364;2023-04-05T06:21:25;94670.78;;;1.89;100.00
28626;BME280;18905;42.668;23.364;2023-04-05T06:23:51;94661.22;;;1.88;100.00
28626;BME280;18905;42.668;23.364;2023-04-05T06:26:18;94678.31;;;2.25;100.00
28626;BME280;18905;42.668;23.364;2023-04-05T06:28:47;94659.47;;;2.12;100.00
28626;BME280;18905;42.668;23.364;2023-04-05T06:31:14;94667.41;;;2.27;100.00
28626;BME280;18905;42.668;23.364;2023-04-05T06:33:40;94647.78;;;2.08;100.00
28626;BME280;18905;42.668;23.364;2023-04-05T06:36:06;94662.66;;;2.19;100.00
28626;BME280;18905;42.668;23.364;2023-04-05T06:38:32;94689.09;;;2.44;100.00
28626;BME280;18905;42.668;23.364;2023-04-05T06:40:57;94688.00;;;2.83;100.00
28626;BME280;18905;42.668;23.364;2023-04-05T06:43:23;94658.78;;;2.35;100.00
28626;BME280;18905;42.668;23.364;2023-04-05T06:45:48;94680.34;;;2.77;100.00
28626;BME280;18905;42.668;23.364;2023-04-05T06:48:14;94663.38;;;2.68;100.00
28626;BME280;18905;42.668;23.364;2023-04-05T06:50:39;94668.09;;;2.37;100.00
28626;BME280;18905;42.668;23.364;2023-04-05T06:53:05;94702.25;;;2.74;100.00
28626;BME280;18905;42.668;23.364;2023-04-05T06:55:31;94712.69;;;2.65;100.00
28626;BME280;18905;42.668;23.364;2023-04-05T06:57:56;94671.72;;;2.51;100.00
28626;BME280;18905;42.668;23.364;2023-04-05T07:00:22;94683.78;;;2.44;100.00
28626;BME280;18905;42.668;23.364;2023-04-05T07:02:48;94707.53;;;2.40;100.00
28626;BME280;18905;42.668;23.364;2023-04-05T07:05:14;94709.16;;;2.75;100.00
28626;BME280;18905;42.668;23.364;2023-04-05T07:07:40;94715.41;;;2.55;100.00
28626;BME280;18905;42.668;23.364;2023-04-05T07:10:07;94702.13;;;2.89;100.00
28626;BME280;18905;42.668;23.364;2023-04-05T07:12:32;94699.81;;;2.77;100.00
28626;BME280;18905;42.668;23.364;2023-04-05T07:14:58;94712.94;;;2.69;100.00
28626;BME280;18905;42.668;23.364;2023-04-05T07:17:24;94707.03;;;2.72;100.00
28626;BME280;18905;42.668;23.364;2023-04-05T07:19:49;94693.06;;;2.51;100.00
28626;BME280;18905;42.668;23.364;2023-04-05T07:22:15;94712.50;;;2.52;100.00
28626;BME280;18905;42.668;23.364;2023-04-05T07:24:41;94699.50;;;2.45;100.00
28626;BME280;18905;42.668;23.364;2023-04-05T07:27:06;94658.84;;;2.63;100.00
28626;BME280;18905;42.668;23.364;2023-04-05T07:29:32;94739.84;;;2.72;100.00
28626;BME280;18905;42.668;23.364;2023-04-05T07:31:59;94678.91;;;2.56;100.00
28626;BME280;18905;42.668;23.364;2023-04-05T07:34:24;94738.91;;;2.92;100.00
28626;BME280;18905;42.668;23.364;2023-04-05T07:36:51;94715.97;;;2.91;100.00
28626;BME280;18905;42.668;23.364;2023-04-05T07:39:16;94630.75;;;2.09;100.00
28626;BME280;18905;42.668;23.364;2023-04-05T07:41:42;94735.66;;;3.00;100.00
28626;BME280;18905;42.668;23.364;2023-04-05T07:44:07;94739.97;;;2.52;100.00
28626;BME280;18905;42.668;23.364;2023-04-05T07:46:33;94732.53;;;2.88;100.00
28626;BME280;18905;42.668;23.364;2023-04-05T07:48:59;94737.50;;;2.61;100.00
28626;BME280;18905;42.668;23.364;2023-04-05T07:51:24;94761.41;;;2.76;100.00
28626;BME280;18905;42.668;23.364;2023-04-05T07:53:51;94752.31;;;2.82;100.00
28626;BME280;18905;42.668;23.364;2023-04-05T07:56:16;94701.34;;;2.45;100.00
28626;BME280;18905;42.668;23.364;2023-04-05T07:58:43;94763.47;;;2.84;100.00
28626;BME280;18905;42.668;23.364;2023-04-05T08:01:09;94744.00;;;2.83;100.00
28626;BME280;18905;42.668;23.364;2023-04-05T08:03:36;94771.47;;;2.84;100.00
28626;BME280;18905;42.668;23.364;2023-04-05T08:06:14;94736.41;;;2.67;100.00
28626;BME280;18905;42.668;23.364;2023-04-05T08:08:46;94767.66;;;2.95;100.00
28626;BME280;18905;42.668;23.364;2023-04-05T08:11:11;94770.84;;;2.97;100.00
28626;BME280;18905;42.668;23.364;2023-04-05T08:13:37;94772.06;;;2.76;100.00
28626;BME280;18905;42.668;23.364;2023-04-05T08:16:06;94720.81;;;2.84;100.00
28626;BME280;18905;42.668;23.364;2023-04-05T08:18:32;94780.69;;;3.01;100.00
28626;BME280;18905;42.668;23.364;2023-04-05T08:20:57;94726.78;;;2.71;100.00
28626;BME280;18905;42.668;23.364;2023-04-05T08:23:22;94746.47;;;3.13;100.00
28626;BME280;18905;42.668;23.364;2023-04-05T08:25:48;94761.66;;;2.79;100.00
28626;BME280;18905;42.668;23.364;2023-04-05T08:28:14;94717.31;;;2.55;100.00
28626;BME280;18905;42.668;23.364;2023-04-05T08:30:39;94764.34;;;3.08;100.00
28626;BME280;18905;42.668;23.364;2023-04-05T08:33:05;94785.44;;;3.09;100.00
28626;BME280;18905;42.668;23.364;2023-04-05T08:35:31;94750.31;;;2.59;100.00
28626;BME280;18905;42.668;23.364;2023-04-05T08:37:57;94693.34;;;2.45;100.00
28626;BME280;18905;42.668;23.364;2023-04-05T08:40:30;94734.25;;;2.69;100.00
28626;BME280;18905;42.668;23.364;2023-04-05T08:43:05;94709.13;;;2.80;100.00
28626;BME280;18905;42.668;23.364;2023-04-05T08:45:33;94760.06;;;3.12;100.00
28626;BME280;18905;42.668;23.364;2023-04-05T08:48:00;94736.78;;;2.50;100.00
28626;BME280;18905;42.668;23.364;2023-04-05T08:50:25;94748.19;;;2.56;100.00
28626;BME280;18905;42.668;23.364;2023-04-05T08:52:51;94783.88;;;3.03;100.00
28626;BME280;18905;42.668;23.364;2023-04-05T08:55:17;94785.69;;;3.08;100.00
28626;BME280;18905;42.668;23.364;2023-04-05T08:57:46;94812.25;;;3.28;100.00
28626;BME280;18905;42.668;23.364;2023-04-05T09:00:13;94784.06;;;3.12;100.00
28626;BME280;18905;42.668;23.364;2023-04-05T09:02:42;94797.25;;;2.98;100.00
28626;BME280;18905;42.668;23.364;2023-04-05T09:05:09;94817.78;;;2.98;100.00
28626;BME280;18905;42.668;23.364;2023-04-05T09:07:36;94820.88;;;3.15;100.00
28626;BME280;18905;42.668;23.364;2023-04-05T09:10:04;94801.56;;;3.28;100.00
28626;BME280;18905;42.668;23.364;2023-04-05T09:12:31;94824.97;;;3.69;100.00
28626;BME280;18905;42.668;23.364;2023-04-05T09:14:59;94821.72;;;3.44;100.00
28626;BME280;18905;42.668;23.364;2023-04-05T09:17:27;94744.66;;;2.70;100.00
28626;BME280;18905;42.668;23.364;2023-04-05T09:19:52;94807.06;;;3.41;100.00
28626;BME280;18905;42.668;23.364;2023-04-05T09:22:17;94824.59;;;3.19;100.00
28626;BME280;18905;42.668;23.364;2023-04-05T09:24:44;94819.28;;;3.09;100.00
28626;BME280;18905;42.668;23.364;2023-04-05T09:27:15;94782.44;;;2.77;100.00
28626;BME280;18905;42.668;23.364;2023-04-05T09:29:44;94781.25;;;2.98;100.00
28626;BME280;18905;42.668;23.364;2023-04-05T09:32:11;94813.59;;;2.87;100.00
28626;BME280;18905;42.668;23.364;2023-04-05T09:34:38;94797.97;;;2.70;100.00
28626;BME280;18905;42.668;23.364;2023-04-05T09:37:18;94780.44;;;2.98;100.00
28626;BME280;18905;42.668;23.364;2023-04-05T09:39:45;94819.56;;;3.74;100.00
28626;BME280;18905;42.668;23.364;2023-04-05T09:42:15;94780.38;;;3.41;100.00
28626;BME280;18905;42.668;23.364;2023-04-05T09:44:54;94800.09;;;3.97;100.00
28626;BME280;18905;42.668;23.364;2023-04-05T09:47:24;94797.63;;;4.06;100.00
28626;BME280;18905;42.668;23.364;2023-04-05T09:49:55;94798.13;;;4.08;100.00
28626;BME280;18905;42.668;23.364;2023-04-05T09:52:22;94813.66;;;4.06;100.00
28626;BME280;18905;42.668;23.364;2023-04-05T09:54:48;94794.25;;;4.42;100.00
28626;BME280;18905;42.668;23.364;2023-04-05T09:57:14;94771.44;;;3.84;100.00
28626;BME280;18905;42.668;23.364;2023-04-05T09:59:41;94796.06;;;4.47;100.00
28626;BME280;18905;42.668;23.364;2023-04-05T10:02:06;94787.16;;;4.09;100.00
28626;BME280;18905;42.668;23.364;2023-04-05T10:04:44;94806.03;;;4.18;100.00
28626;BME280;18905;42.668;23.364;2023-04-05T10:07:11;94771.13;;;4.33;100.00
28626;BME280;18905;42.668;23.364;2023-04-05T10:09:41;94780.44;;;4.77;100.00
28626;BME280;18905;42.668;23.364;2023-04-05T10:12:08;94803.50;;;4.92;100.00
28626;BME280;18905;42.668;23.364;2023-04-05T10:14:35;94796.38;;;5.01;100.00
28626;BME280;18905;42.668;23.364;2023-04-05T10:19:44;94814.78;;;4.23;100.00
28626;BME280;18905;42.668;23.364;2023-04-05T10:22:22;94800.81;;;4.08;100.00
28626;BME280;18905;42.668;23.364;2023-04-05T10:24:51;94797.16;;;3.70;100.00
28626;BME280;18905;42.668;23.364;2023-04-05T10:27:30;94761.03;;;3.83;100.00
28626;BME280;18905;42.668;23.364;2023-04-05T10:30:07;94803.63;;;3.93;100.00
28626;BME280;18905;42.668;23.364;2023-04-05T10:35:26;94783.19;;;4.07;100.00
28626;BME280;18905;42.668;23.364;2023-04-05T10:38:21;94783.47;;;4.05;100.00
28626;BME280;18905;42.668;23.364;2023-04-05T10:40:48;94786.22;;;4.42;100.00
28626;BME280;18905;42.668;23.364;2023-04-05T10:43:22;94781.66;;;4.01;100.00
28626;BME280;18905;42.668;23.364;2023-04-05T10:45:52;94792.16;;;4.16;100.00
28626;BME280;18905;42.668;23.364;2023-04-05T10:48:46;94806.91;;;4.13;100.00
28626;BME280;18905;42.668;23.364;2023-04-05T10:51:14;94805.78;;;3.91;100.00
28626;BME280;18905;42.668;23.364;2023-04-05T10:53:40;94780.75;;;3.87;100.00
28626;BME280;18905;42.668;23.364;2023-04-05T10:56:06;94830.81;;;4.23;100.00
28626;BME280;18905;42.668;23.364;2023-04-05T10:58:34;94811.03;;;4.24;100.00
28626;BME280;18905;42.668;23.364;2023-04-05T11:01:01;94772.94;;;4.14;100.00
28626;BME280;18905;42.668;23.364;2023-04-05T11:08:47;94786.00;;;4.15;100.00
28626;BME280;18905;42.668;23.364;2023-04-05T11:11:17;94808.06;;;4.02;100.00
28626;BME280;18905;42.668;23.364;2023-04-05T11:13:56;94827.50;;;4.08;100.00
28626;BME280;18905;42.668;23.364;2023-04-05T11:16:24;94787.34;;;3.94;100.00
28626;BME280;18905;42.668;23.364;2023-04-05T11:19:02;94758.25;;;3.64;100.00
28626;BME280;18905;42.668;23.364;2023-04-05T11:21:28;94830.56;;;4.48;100.00
28626;BME280;18905;42.668;23.364;2023-04-05T11:24:05;94804.75;;;4.57;100.00
28626;BME280;18905;42.668;23.364;2023-04-05T11:29:05;94820.97;;;4.42;100.00
28626;BME280;18905;42.668;23.364;2023-04-05T11:31:31;94824.78;;;4.60;100.00
28626;BME280;18905;42.668;23.364;2023-04-05T11:33:58;94812.75;;;4.39;99.81
28626;BME280;18905;42.668;23.364;2023-04-05T11:36:44;94813.06;;;4.09;100.00
28626;BME280;18905;42.668;23.364;2023-04-05T11:42:04;94796.94;;;4.19;100.00
28626;BME280;18905;42.668;23.364;2023-04-05T11:47:06;94821.50;;;4.86;94.13
28626;BME280;18905;42.668;23.364;2023-04-05T11:49:32;94819.44;;;4.60;93.89
28626;BME280;18905;42.668;23.364;2023-04-05T11:52:09;94788.56;;;4.49;95.34
28626;BME280;18905;42.668;23.364;2023-04-05T11:54:35;94826.09;;;4.39;100.00
28626;BME280;18905;42.668;23.364;2023-04-05T11:57:00;94821.56;;;5.00;96.85
28626;BME280;18905;42.668;23.364;2023-04-05T11:59:34;94822.34;;;4.82;96.02
28626;BME280;18905;42.668;23.364;2023-04-05T12:02:03;94809.53;;;4.37;97.61
28626;BME280;18905;42.668;23.364;2023-04-05T12:04:34;94810.81;;;4.44;98.39
28626;BME280;18905;42.668;23.364;2023-04-05T12:07:27;94837.66;;;4.11;100.00
28626;BME280;18905;42.668;23.364;2023-04-05T12:12:25;94832.09;;;4.73;100.00
28626;BME280;18905;42.668;23.364;2023-04-05T12:14:56;94816.19;;;4.63;100.00
28626;BME280;18905;42.668;23.364;2023-04-05T12:20:13;94828.72;;;5.23;99.53
28626;BME280;18905;42.668;23.364;2023-04-05T12:22:40;94811.22;;;5.62;99.17
28626;BME280;18905;42.668;23.364;2023-04-05T12:25:07;94810.25;;;5.58;97.18
28626;BME280;18905;42.668;23.364;2023-04-05T12:27:32;94812.31;;;5.11;99.89
28626;BME280;18905;42.668;23.364;2023-04-05T12:30:18;94817.22;;;6.05;98.53
28626;BME280;18905;42.668;23.364;2023-04-05T12:32:52;94814.56;;;6.32;92.80
28626;BME280;18905;42.668;23.364;2023-04-05T12:35:23;94817.72;;;6.07;89.20
28626;BME280;18905;42.668;23.364;2023-04-05T12:37:50;94819.50;;;5.66;92.18
28626;BME280;18905;42.668;23.364;2023-04-05T12:40:20;94778.53;;;5.15;96.81
28626;BME280;18905;42.668;23.364;2023-04-05T12:42:46;94773.84;;;5.07;96.44
28626;BME280;18905;42.668;23.364;2023-04-05T12:45:13;94811.75;;;5.46;97.15
28626;BME280;18905;42.668;23.364;2023-04-05T12:48:11;94800.50;;;5.62;93.51
28626;BME280;18905;42.668;23.364;2023-04-05T12:50:47;94805.00;;;5.35;95.73
28626;BME280;18905;42.668;23.364;2023-04-05T12:53:17;94823.59;;;5.77;93.48
28626;BME280;18905;42.668;23.364;2023-04-05T12:55:52;94822.34;;;5.56;94.14
28626;BME280;18905;42.668;23.364;2023-04-05T12:58:19;94817.19;;;5.41;96.17
28626;BME280;18905;42.668;23.364;2023-04-05T13:00:45;94827.22;;;5.17;98.24
28626;BME280;18905;42.668;23.364;2023-04-05T13:03:15;94816.44;;;5.03;100.00
28626;BME280;18905;42.668;23.364;2023-04-05T13:05:42;94790.03;;;5.34;97.97
28626;BME280;18905;42.668;23.364;2023-04-05T13:08:07;94805.22;;;5.01;96.24
28626;BME280;18905;42.668;23.364;2023-04-05T13:10:33;94817.84;;;4.59;97.14
28626;BME280;18905;42.668;23.364;2023-04-05T13:12:58;94782.81;;;4.37;99.73
28626;BME280;18905;42.668;23.364;2023-04-05T13:15:23;94817.16;;;5.09;97.09
28626;BME280;18905;42.668;23.364;2023-04-05T13:17:49;94831.56;;;5.13;94.82
28626;BME280;18905;42.668;23.364;2023-04-05T13:20:17;94796.81;;;4.71;96.70
28626;BME280;18905;42.668;23.364;2023-04-05T13:22:42;94792.19;;;4.34;95.90
28626;BME280;18905;42.668;23.364;2023-04-05T13:25:08;94832.88;;;4.97;96.03
28626;BME280;18905;42.668;23.364;2023-04-05T13:27:34;94840.00;;;4.83;96.29